Decatur, Ohio
Current Conditions -  °F | °C
As of 11:15 AM on Wednesday 22 Oct 2014 (Local Time) from KFGX Reporting Station
Overcast Overcast  
Wind Chill: 46°   Ceiling: 2000
Heat Index: 48°   Visibility: 10mi
Dew Point: 40°   Wind: 6mph
Humidity: 74%   Direction: 360°N
Pressure: 30.28"   Gusts: NA
Location:  38.82°N, 83.7°W
Report Text: KFGX 221515Z AUTO 36005KT 10SM OVC020 09/05 A3028 RMK AO2 T00910047
Loading
Personal Weather Stations






























Interactive Weather Map
Tropical Storm Tracking
New forecast layout! Learn more

10-Day Weather Forecast

Advertisements
Track Severe Weather on mobile